createdAt,value
2019-05-14T00:02:03.507Z,84.11
2019-05-14T00:04:11.563Z,83.62
2019-05-14T00:06:18.919Z,82.55
2019-05-14T00:08:26.069Z,82.38
2019-05-14T00:10:33.187Z,82.02
2019-05-14T00:12:41.848Z,83.04
2019-05-14T00:14:51.450Z,82.46
2019-05-14T00:16:57.880Z,83.41
2019-05-14T00:19:06.078Z,83.44
2019-05-14T00:21:13.372Z,83.65
2019-05-14T00:23:21.458Z,83.44
2019-05-14T00:25:31.119Z,83.40
2019-05-14T00:27:37.551Z,83.72
2019-05-14T00:29:44.667Z,83.58
2019-05-14T00:31:51.829Z,82.86
2019-05-14T00:33:58.960Z,82.40
2019-05-14T00:36:06.151Z,81.09
2019-05-14T00:38:13.274Z,81.38
2019-05-14T00:40:22.127Z,81.58
2019-05-14T00:42:31.767Z,81.62
2019-05-14T00:44:51.590Z,81.52
2019-05-14T00:46:46.972Z,81.76
2019-05-14T00:48:54.152Z,81.30
2019-05-14T00:51:02.456Z,82.20
2019-05-14T00:53:11.790Z,83.47
2019-05-14T00:55:18.679Z,83.05
2019-05-14T00:57:25.725Z,82.88
2019-05-14T00:59:32.814Z,82.53
2019-05-14T01:01:42.285Z,82.36
2019-05-14T01:03:48.624Z,81.91
2019-05-14T01:05:55.778Z,81.81
2019-05-14T01:08:02.899Z,82.43
2019-05-14T01:10:12.128Z,81.96
2019-05-14T01:12:21.233Z,82.71
2019-05-14T01:14:28.094Z,83.09
2019-05-14T01:16:35.192Z,83.29
2019-05-14T01:18:42.279Z,84.10
2019-05-14T01:20:51.707Z,83.38
2019-05-14T01:22:58.247Z,83.45
2019-05-14T01:25:05.683Z,83.97
2019-05-14T01:27:12.884Z,84.35
2019-05-14T01:29:21.966Z,84.31
2019-05-14T01:31:31.270Z,84.82
2019-05-14T01:33:38.044Z,84.39
2019-05-14T01:35:45.103Z,85.42
2019-05-14T01:37:52.418Z,85.36
2019-05-14T01:40:01.211Z,85.97
2019-05-14T01:42:08.327Z,85.99
2019-05-14T01:44:15.516Z,86.65
2019-05-14T01:46:22.743Z,86.86
2019-05-14T01:48:31.297Z,86.85
2019-05-14T01:50:38.628Z,87.49
2019-05-14T01:52:45.731Z,87.24
2019-05-14T01:54:54.684Z,87.23
2019-05-14T01:57:02.239Z,87.86
2019-05-14T01:59:09.441Z,88.14
2019-05-14T02:01:16.505Z,87.83
2019-05-14T02:03:25.579Z,87.48
2019-05-14T02:05:33.172Z,87.42
2019-05-14T02:07:42.026Z,87.51
2019-05-14T02:09:49.147Z,87.40
2019-05-14T02:11:56.201Z,87.15
2019-05-14T02:14:03.254Z,86.53
2019-05-14T02:16:12.992Z,85.84
2019-05-14T02:18:21.760Z,85.81
2019-05-14T02:20:32.144Z,85.31
2019-05-14T02:22:41.677Z,84.88
2019-05-14T02:24:49.314Z,84.36
2019-05-14T02:26:57.039Z,83.74
2019-05-14T02:29:04.256Z,84.69
2019-05-14T02:31:11.316Z,84.52
2019-05-14T02:33:19.242Z,84.44
2019-05-14T02:35:29.670Z,83.99
2019-05-14T02:37:35.403Z,84.07
2019-05-14T02:39:42.447Z,84.31
2019-05-14T02:41:54.093Z,84.62
2019-05-14T02:44:01.204Z,84.07
2019-05-14T02:46:16.035Z,84.03
2019-05-14T02:48:22.651Z,84.94
2019-05-14T02:50:29.833Z,85.53
2019-05-14T02:52:39.870Z,85.38
2019-05-14T02:54:49.250Z,86.15
2019-05-14T02:56:54.504Z,86.72
2019-05-14T02:59:05.644Z,86.97
2019-05-14T03:01:10.325Z,86.89
2019-05-14T03:03:19.229Z,87.25
2019-05-14T03:05:29.320Z,87.31
2019-05-14T03:07:35.294Z,87.69
2019-05-14T03:09:42.342Z,88.01
2019-05-14T03:11:49.538Z,88.12
2019-05-14T03:13:59.764Z,87.76
2019-05-14T03:16:22.443Z,87.49
2019-05-14T03:18:14.685Z,87.23
2019-05-14T03:20:21.814Z,87.95
2019-05-14T03:22:43.500Z,88.44
2019-05-14T03:24:39.669Z,88.14
2019-05-14T03:26:49.662Z,87.89
2019-05-14T03:28:55.551Z,87.02
2019-05-14T03:31:04.126Z,86.96
2019-05-14T03:33:13.262Z,87.06
2019-05-14T03:35:23.376Z,86.26
2019-05-14T03:37:31.036Z,86.28
2019-05-14T03:39:39.675Z,85.86
2019-05-14T03:41:49.920Z,85.42
2019-05-14T03:44:00.054Z,85.27
2019-05-14T03:46:09.473Z,85.25
2019-05-14T03:48:15.414Z,85.16
2019-05-14T03:50:22.585Z,85.08
2019-05-14T03:52:30.168Z,84.97
2019-05-14T03:54:40.737Z,85.02
2019-05-14T03:56:49.362Z,85.10
2019-05-14T03:58:55.403Z,85.43
2019-05-14T04:01:03.260Z,85.78
2019-05-14T04:03:10.489Z,85.71
2019-05-14T04:05:22.649Z,85.54
2019-05-14T04:07:30.328Z,85.02
2019-05-14T04:09:40.007Z,84.24
2019-05-14T04:11:50.922Z,84.82
2019-05-14T04:14:01.254Z,84.58
2019-05-14T04:16:09.589Z,84.04
2019-05-14T04:18:18.650Z,84.35
2019-05-14T04:20:29.774Z,84.92
2019-05-14T04:22:39.297Z,85.02
2019-05-14T04:24:49.594Z,84.82
2019-05-14T04:27:07.126Z,85.04
2019-05-14T04:29:13.027Z,85.67
2019-05-14T04:31:24.948Z,85.15
2019-05-14T04:33:39.022Z,84.42
2019-05-14T04:35:45.200Z,84.40
2019-05-14T04:37:52.716Z,84.58
2019-05-14T04:39:59.818Z,84.79
2019-05-14T04:42:09.659Z,84.50
2019-05-14T04:44:18.936Z,83.93
2019-05-14T04:46:24.700Z,83.12
2019-05-14T04:48:37.491Z,83.30
2019-05-14T04:50:42.472Z,84.08
2019-05-14T04:52:52.384Z,84.91
2019-05-14T04:54:59.781Z,84.38
2019-05-14T04:57:10.115Z,84.60
2019-05-14T04:59:19.011Z,83.79
2019-05-14T05:01:24.513Z,84.33
2019-05-14T05:03:31.921Z,84.79
2019-05-14T05:05:40.903Z,85.25
2019-05-14T05:07:49.199Z,85.20
2019-05-14T05:09:59.362Z,85.25
2019-05-14T05:12:08.844Z,85.67
2019-05-14T05:14:15.187Z,85.65
2019-05-14T05:16:22.316Z,86.02
2019-05-14T05:18:29.875Z,85.48
2019-05-14T05:20:39.374Z,85.73
2019-05-14T05:22:48.358Z,84.70
2019-05-14T05:24:54.571Z,84.82
2019-05-14T05:27:01.625Z,84.09
2019-05-14T05:29:10.575Z,84.83
2019-05-14T05:31:18.686Z,85.56
2019-05-14T05:33:25.944Z,85.93
2019-05-14T05:35:33.094Z,84.87
2019-05-14T05:37:40.139Z,84.92
2019-05-14T05:39:49.289Z,85.29
2019-05-14T05:41:58.531Z,84.48
2019-05-14T05:44:08.026Z,83.94
2019-05-14T05:46:14.337Z,83.19
2019-05-14T05:48:21.418Z,83.84
2019-05-14T05:50:28.844Z,84.26
2019-05-14T05:52:38.539Z,84.47
2019-05-14T05:54:44.815Z,85.49
2019-05-14T05:56:51.853Z,84.81
2019-05-14T05:59:00.687Z,84.46
2019-05-14T06:01:09.580Z,83.89
2019-05-14T06:03:20.560Z,84.82
2019-05-14T06:05:29.110Z,84.91
2019-05-14T06:07:39.218Z,85.27
2019-05-14T06:09:45.412Z,85.46
2019-05-14T06:11:52.456Z,85.43
2019-05-14T06:13:59.542Z,85.45
2019-05-14T06:16:09.215Z,86.75
2019-05-14T06:18:19.503Z,86.21
2019-05-14T06:20:24.375Z,86.45
2019-05-14T06:22:31.445Z,85.80
2019-05-14T06:24:39.146Z,85.59
2019-05-14T06:27:04.454Z,86.26
2019-05-14T06:29:11.748Z,87.43
2019-05-14T06:31:19.424Z,88.62
2019-05-14T06:33:28.620Z,88.54
2019-05-14T06:35:35.825Z,88.04
2019-05-14T06:37:42.951Z,88.45
2019-05-14T06:39:50.087Z,88.85
2019-05-14T06:41:58.517Z,88.40
2019-05-14T06:44:05.942Z,87.36
2019-05-14T06:46:15.795Z,88.49
2019-05-14T06:48:30.848Z,88.22
2019-05-14T06:50:31.609Z,87.28
2019-05-14T06:52:39.004Z,87.87
2019-05-14T06:54:46.102Z,87.69
2019-05-14T06:56:53.214Z,87.32
2019-05-14T06:59:00.872Z,87.70
2019-05-14T07:01:09.635Z,86.99
2019-05-14T07:03:18.018Z,86.90
2019-05-14T07:05:25.322Z,85.44
2019-05-14T07:07:33.533Z,84.86
2019-05-14T07:09:41.396Z,87.16
2019-05-14T07:11:49.323Z,85.52
2019-05-14T07:13:58.141Z,86.27
2019-05-14T07:16:05.441Z,86.42
2019-05-14T07:18:12.521Z,83.61
2019-05-14T07:20:19.733Z,84.54
2019-05-14T07:22:28.183Z,83.90
2019-05-14T07:24:38.040Z,84.44
2019-05-14T07:26:44.654Z,83.63
2019-05-14T07:28:51.744Z,84.84
2019-05-14T07:30:59.468Z,82.59
2019-05-14T07:33:09.424Z,83.62
2019-05-14T07:35:18.387Z,84.73
2019-05-14T07:37:25.795Z,84.22
2019-05-14T07:39:32.819Z,84.21
2019-05-14T07:41:39.881Z,85.70
2019-05-14T07:43:48.295Z,85.36
2019-05-14T07:45:58.048Z,83.13
2019-05-14T07:48:04.450Z,83.50
2019-05-14T07:50:12.302Z,82.82
2019-05-14T07:52:19.874Z,81.92
2019-05-14T07:54:28.265Z,82.46
2019-05-14T07:56:38.270Z,83.70
2019-05-14T07:58:44.517Z,81.66
2019-05-14T08:00:53.455Z,83.46
2019-05-14T08:03:00.543Z,83.73
2019-05-14T08:05:08.764Z,82.85
2019-05-14T08:07:18.005Z,83.23
2019-05-14T08:09:24.940Z,83.18
2019-05-14T08:11:33.090Z,84.30
2019-05-14T08:13:42.622Z,84.95
2019-05-14T08:15:49.155Z,82.53
2019-05-14T08:17:58.426Z,81.24
2019-05-14T08:20:09.088Z,82.94
2019-05-14T08:22:18.671Z,84.01
2019-05-14T08:24:27.133Z,84.02
2019-05-14T08:26:34.808Z,84.47
2019-05-14T08:28:41.959Z,83.40
2019-05-14T08:30:50.895Z,84.10
2019-05-14T08:32:58.386Z,83.76
2019-05-14T08:35:09.014Z,84.39
2019-05-14T08:37:18.886Z,83.27
2019-05-14T08:39:25.175Z,85.98
2019-05-14T08:41:32.260Z,81.70
2019-05-14T08:43:39.859Z,83.98
2019-05-14T08:45:48.779Z,80.86
2019-05-14T08:47:58.478Z,82.70
2019-05-14T08:50:05.601Z,81.78
2019-05-14T08:52:15.971Z,78.38
2019-05-14T08:54:21.764Z,78.73
2019-05-14T08:56:28.950Z,80.88
2019-05-14T08:58:38.302Z,78.64
2019-05-14T09:00:44.844Z,79.74
2019-05-14T09:02:51.886Z,80.00
2019-05-14T09:05:04.007Z,78.31
2019-05-14T09:07:09.534Z,78.96
2019-05-14T09:09:18.537Z,79.42
2019-05-14T09:11:34.419Z,79.03
2019-05-14T09:13:38.355Z,79.21
2019-05-14T09:15:45.578Z,78.58
2019-05-14T09:17:52.688Z,77.09
2019-05-14T09:20:06.728Z,78.08
2019-05-14T09:22:09.542Z,76.80
2019-05-14T09:24:18.206Z,78.42
2019-05-14T09:26:28.522Z,78.70
2019-05-14T09:28:35.824Z,78.87
2019-05-14T09:30:43.074Z,80.62
2019-05-14T09:32:51.970Z,81.79
2019-05-14T09:35:00.343Z,81.40
2019-05-14T09:37:08.788Z,81.45
2019-05-14T09:39:18.781Z,82.15
2019-05-14T09:41:28.582Z,81.30
2019-05-14T09:43:39.236Z,81.35
2019-05-14T09:45:48.272Z,82.67
2019-05-14T09:47:58.488Z,83.73
2019-05-14T09:50:22.861Z,82.52
2019-05-14T09:52:19.117Z,82.65
2019-05-14T09:54:28.736Z,81.52
2019-05-14T09:56:39.361Z,82.45
2019-05-14T09:58:46.311Z,82.73
2019-05-14T10:00:54.186Z,82.72
2019-05-14T10:03:02.144Z,83.07
2019-05-14T10:05:10.578Z,81.13
2019-05-14T10:07:18.586Z,81.50
2019-05-14T10:09:28.833Z,80.98
2019-05-14T10:11:38.211Z,80.08
2019-05-14T10:13:48.357Z,81.97
2019-05-14T10:15:58.737Z,81.65
2019-05-14T10:18:11.003Z,82.75
2019-05-14T10:20:35.558Z,80.12
2019-05-14T10:22:28.594Z,79.51
2019-05-14T10:24:38.491Z,79.80
2019-05-14T10:26:48.977Z,81.20
2019-05-14T10:28:58.869Z,81.01
2019-05-14T10:31:09.349Z,80.49
2019-05-14T10:33:18.140Z,80.34
2019-05-14T10:35:28.485Z,81.85
2019-05-14T10:37:35.974Z,82.01
2019-05-14T10:39:43.854Z,81.26
2019-05-14T10:41:51.751Z,81.76
2019-05-14T10:43:59.720Z,82.68
2019-05-14T10:46:09.128Z,83.33
2019-05-14T10:48:18.606Z,83.41
2019-05-14T10:50:28.993Z,82.44
2019-05-14T10:52:39.538Z,82.58
2019-05-14T10:54:55.275Z,82.15
2019-05-14T10:56:58.914Z,81.48
2019-05-14T10:59:09.206Z,82.76
2019-05-14T11:01:15.970Z,81.34
2019-05-14T11:03:23.995Z,81.30
2019-05-14T11:05:31.872Z,81.58
2019-05-14T11:07:41.703Z,80.49
2019-05-14T11:09:49.479Z,82.12
2019-05-14T11:11:58.332Z,81.38
2019-05-14T11:14:08.834Z,82.36
2019-05-14T11:16:19.005Z,82.36
2019-05-14T11:18:29.090Z,82.05
2019-05-14T11:20:36.262Z,83.42
2019-05-14T11:22:45.139Z,84.36
2019-05-14T11:24:53.189Z,83.63
2019-05-14T11:27:02.195Z,84.21
2019-05-14T11:29:10.504Z,85.13
2019-05-14T11:31:19.249Z,84.68
2019-05-14T11:33:29.591Z,84.66
2019-05-14T11:35:39.483Z,83.15
2019-05-14T11:37:48.002Z,84.41
2019-05-14T11:39:57.978Z,84.25
2019-05-14T11:42:08.284Z,84.08
2019-05-14T11:44:15.407Z,83.96
2019-05-14T11:46:39.486Z,84.46
2019-05-14T11:48:34.552Z,82.91
2019-05-14T11:50:42.444Z,83.58
2019-05-14T11:52:50.320Z,83.56
2019-05-14T11:54:58.565Z,83.45
2019-05-14T11:57:11.464Z,83.15
2019-05-14T11:59:16.008Z,82.29
2019-05-14T12:01:24.259Z,82.74
2019-05-14T12:03:32.211Z,82.83
2019-05-14T12:05:40.092Z,83.23
2019-05-14T12:07:48.077Z,82.79
2019-05-14T12:09:56.044Z,83.59
2019-05-14T12:12:04.140Z,83.10
2019-05-14T12:14:12.935Z,82.88
2019-05-14T12:16:20.808Z,81.95
2019-05-14T12:18:29.142Z,82.41
2019-05-14T12:20:39.613Z,82.42
2019-05-14T12:22:48.785Z,83.02
2019-05-14T12:24:58.450Z,81.41
2019-05-14T12:27:08.830Z,81.03
2019-05-14T12:29:16.161Z,82.62
2019-05-14T12:31:24.098Z,82.68
2019-05-14T12:33:32.159Z,81.97
2019-05-14T12:35:40.465Z,83.52
2019-05-14T12:37:48.555Z,82.65
2019-05-14T12:39:58.627Z,82.33
2019-05-14T12:42:06.126Z,83.50
2019-05-14T12:44:14.020Z,83.56
2019-05-14T12:46:21.971Z,83.78
2019-05-14T12:48:30.048Z,83.49
2019-05-14T12:50:39.282Z,82.72
2019-05-14T12:52:48.457Z,82.81
2019-05-14T12:54:59.612Z,82.71
2019-05-14T12:57:06.243Z,82.36
2019-05-14T12:59:14.165Z,83.57
2019-05-14T13:01:23.117Z,83.14
2019-05-14T13:03:31.018Z,83.59
2019-05-14T13:05:38.997Z,81.94
2019-05-14T13:07:51.049Z,83.91
2019-05-14T13:09:58.381Z,84.16
2019-05-14T13:12:10.936Z,82.43
2019-05-14T13:14:17.293Z,83.98
2019-05-14T13:16:25.213Z,82.88
2019-05-14T13:18:33.126Z,82.89
2019-05-14T13:20:42.613Z,83.71
2019-05-14T13:22:50.675Z,82.66
2019-05-14T13:24:58.589Z,83.25
2019-05-14T13:27:09.221Z,82.44
2019-05-14T13:29:19.126Z,81.65
2019-05-14T13:31:26.013Z,82.22
2019-05-14T13:33:34.654Z,82.10
2019-05-14T13:35:42.635Z,81.32
2019-05-14T13:37:50.626Z,82.26
2019-05-14T13:39:59.506Z,82.81
2019-05-14T13:42:11.708Z,82.42
2019-05-14T13:44:24.476Z,82.46
2019-05-14T13:46:28.830Z,82.52
2019-05-14T13:48:42.706Z,82.06
2019-05-14T13:50:49.049Z,81.21
2019-05-14T13:53:06.886Z,82.17
2019-05-14T13:55:10.907Z,82.32
2019-05-14T13:57:19.596Z,82.56
2019-05-14T13:59:27.866Z,81.94
2019-05-14T14:01:36.113Z,83.20
2019-05-14T14:03:49.532Z,83.12
2019-05-14T14:05:54.470Z,83.29
2019-05-14T14:08:03.343Z,82.99
2019-05-14T14:10:11.916Z,81.91
2019-05-14T14:12:20.176Z,81.96
2019-05-14T14:14:29.255Z,82.03
2019-05-14T14:16:39.563Z,82.79
2019-05-14T14:18:50.095Z,82.03
2019-05-14T14:20:57.309Z,82.47
2019-05-14T14:23:18.882Z,82.33
2019-05-14T14:25:17.794Z,82.44
2019-05-14T14:27:29.717Z,83.21
2019-05-14T14:29:35.897Z,83.68
2019-05-14T14:31:44.857Z,84.14
2019-05-14T14:33:52.706Z,84.67
2019-05-14T14:36:00.610Z,85.18
2019-05-14T14:38:09.628Z,84.70
2019-05-14T14:40:22.275Z,84.41
2019-05-14T14:42:29.668Z,83.89
2019-05-14T14:44:39.289Z,84.17
2019-05-14T14:46:49.026Z,84.06
2019-05-14T14:49:01.500Z,85.36
2019-05-14T14:51:08.447Z,85.01
2019-05-14T14:53:16.387Z,83.95
2019-05-14T14:55:24.403Z,85.61
2019-05-14T14:57:32.279Z,84.53
2019-05-14T14:59:40.242Z,84.12
2019-05-14T15:01:50.193Z,84.24
2019-05-14T15:04:00.032Z,84.61
2019-05-14T15:06:10.899Z,84.39
2019-05-14T15:08:20.082Z,83.86
2019-05-14T15:10:28.569Z,83.70
2019-05-14T15:12:40.098Z,83.94
2019-05-14T15:14:48.726Z,85.05
2019-05-14T15:16:58.920Z,84.58
2019-05-14T15:19:09.217Z,84.60
2019-05-14T15:21:18.951Z,83.99
2019-05-14T15:23:28.509Z,84.98
2019-05-14T15:25:36.773Z,84.20
2019-05-14T15:27:44.672Z,83.63
2019-05-14T15:29:52.591Z,84.16
2019-05-14T15:32:00.555Z,83.42
2019-05-14T15:34:09.102Z,83.32
2019-05-14T15:36:19.603Z,83.13
2019-05-14T15:38:30.299Z,83.41
2019-05-14T15:40:39.793Z,83.33
2019-05-14T15:42:46.160Z,83.35
2019-05-14T15:44:56.152Z,82.89
2019-05-14T15:47:04.022Z,82.12
2019-05-14T15:49:12.077Z,83.60
2019-05-14T15:51:20.125Z,83.84
2019-05-14T15:53:29.031Z,83.80
2019-05-14T15:55:38.353Z,84.40
2019-05-14T15:57:46.425Z,84.21
2019-05-14T15:59:54.407Z,84.67
2019-05-14T16:02:02.350Z,83.55
2019-05-14T16:04:11.494Z,84.63
2019-05-14T16:06:19.644Z,83.08
2019-05-14T16:08:29.654Z,82.77
2019-05-14T16:10:39.714Z,83.55
2019-05-14T16:12:49.639Z,84.34
2019-05-14T16:14:57.039Z,84.10
2019-05-14T16:17:05.234Z,84.16
2019-05-14T16:19:13.206Z,82.84
2019-05-14T16:21:21.095Z,84.15
2019-05-14T16:23:29.019Z,84.26
2019-05-14T16:25:37.987Z,84.55
2019-05-14T16:27:46.141Z,84.51
2019-05-14T16:29:54.091Z,84.56
2019-05-14T16:32:03.079Z,83.82
2019-05-14T16:34:11.035Z,83.99
2019-05-14T16:36:19.257Z,83.47
2019-05-14T16:38:28.544Z,82.77
2019-05-14T16:40:39.275Z,83.38
2019-05-14T16:42:48.465Z,82.43
2019-05-14T16:44:56.189Z,83.34
2019-05-14T16:47:04.382Z,84.38
2019-05-14T16:49:12.339Z,84.42
2019-05-14T16:51:20.328Z,84.80
2019-05-14T16:53:28.751Z,85.67
2019-05-14T16:55:38.464Z,86.07
2019-05-14T16:57:49.160Z,85.89
2019-05-14T16:59:58.533Z,85.79
2019-05-14T17:02:06.249Z,86.15
2019-05-14T17:04:14.167Z,86.18
2019-05-14T17:06:22.196Z,85.42
2019-05-14T17:08:30.158Z,86.48
2019-05-14T17:10:38.741Z,87.06
2019-05-14T17:12:55.852Z,87.36
2019-05-14T17:14:58.734Z,87.89
2019-05-14T17:17:09.190Z,86.82
2019-05-14T17:19:18.739Z,86.62
2019-05-14T17:21:26.238Z,87.03
2019-05-14T17:23:34.150Z,86.75
2019-05-14T17:25:41.940Z,85.99
2019-05-14T17:27:49.899Z,85.87
2019-05-14T17:29:58.999Z,85.20
2019-05-14T17:32:07.929Z,85.10
2019-05-14T17:34:18.384Z,86.32
2019-05-14T17:36:28.120Z,86.70
2019-05-14T17:38:35.034Z,85.82
2019-05-14T17:40:42.991Z,85.13
2019-05-14T17:42:51.086Z,85.21
2019-05-14T17:44:59.043Z,85.47
2019-05-14T17:47:07.013Z,84.49
2019-05-14T17:49:15.038Z,85.87
2019-05-14T17:51:22.931Z,85.49
2019-05-14T17:53:31.834Z,85.79
2019-05-14T17:55:47.039Z,86.97
2019-05-14T17:57:58.145Z,86.09
2019-05-14T18:00:00.058Z,86.64
2019-05-14T18:02:08.743Z,87.43
2019-05-14T18:04:18.344Z,87.76
2019-05-14T18:06:28.557Z,87.61
2019-05-14T18:08:36.467Z,87.24
2019-05-14T18:10:44.251Z,87.32
2019-05-14T18:12:53.309Z,87.41
2019-05-14T18:15:02.192Z,87.58
2019-05-14T18:17:10.321Z,87.94
2019-05-14T18:19:18.373Z,87.45
2019-05-14T18:21:28.512Z,88.21
2019-05-14T18:23:39.554Z,88.63
2019-05-14T18:26:02.778Z,88.27
2019-05-14T18:27:55.249Z,88.69
2019-05-14T18:30:03.274Z,89.38
2019-05-14T18:32:12.241Z,90.26
2019-05-14T18:34:20.242Z,90.36
2019-05-14T18:36:28.578Z,91.77
2019-05-14T18:38:38.852Z,92.53
2019-05-14T18:40:49.434Z,92.92
2019-05-14T18:42:59.200Z,93.29
2019-05-14T18:45:08.616Z,93.69
2019-05-14T18:47:19.349Z,93.51
2019-05-14T18:49:28.616Z,93.61
2019-05-14T18:51:35.934Z,93.06
2019-05-14T18:53:44.491Z,92.79
2019-05-14T18:55:52.386Z,92.12
2019-05-14T18:58:00.302Z,92.51
2019-05-14T19:00:10.523Z,92.31
2019-05-14T19:02:18.668Z,91.49
2019-05-14T19:04:28.018Z,91.73
2019-05-14T19:06:38.335Z,91.17
2019-05-14T19:08:48.152Z,91.46
2019-05-14T19:10:55.592Z,91.72
2019-05-14T19:13:03.534Z,91.79
2019-05-14T19:15:12.280Z,91.71
2019-05-14T19:17:20.336Z,91.86
2019-05-14T19:19:29.402Z,91.64
2019-05-14T19:21:38.303Z,91.41
2019-05-14T19:23:46.390Z,91.65
2019-05-14T19:25:54.324Z,92.02
2019-05-14T19:28:02.227Z,92.22
2019-05-14T19:30:10.590Z,91.95
2019-05-14T19:32:19.208Z,91.36
2019-05-14T19:34:28.723Z,91.09
2019-05-14T19:36:36.778Z,91.25
2019-05-14T19:38:44.697Z,90.42
2019-05-14T19:40:52.590Z,90.95
2019-05-14T19:43:00.555Z,91.17
2019-05-14T19:45:09.003Z,91.40
2019-05-14T19:47:18.734Z,90.35
2019-05-14T19:49:28.673Z,90.52
2019-05-14T19:51:38.557Z,90.23
2019-05-14T19:53:45.863Z,89.64
2019-05-14T19:55:53.890Z,89.82
2019-05-14T19:58:01.713Z,89.61
2019-05-14T20:00:10.685Z,89.71
2019-05-14T20:02:18.649Z,89.60
2019-05-14T20:04:29.006Z,90.20
2019-05-14T20:06:38.840Z,90.09
2019-05-14T20:08:48.273Z,89.79
2019-05-14T20:10:56.371Z,89.84
2019-05-14T20:13:04.279Z,89.84
2019-05-14T20:15:13.002Z,90.30
2019-05-14T20:17:22.879Z,90.42
2019-05-14T20:19:30.843Z,90.57
2019-05-14T20:21:39.113Z,90.85
2019-05-14T20:23:48.170Z,90.55
2019-05-14T20:25:56.150Z,90.32
2019-05-14T20:28:04.576Z,90.43
2019-05-14T20:30:13.162Z,90.64
2019-05-14T20:32:20.946Z,90.62
2019-05-14T20:34:28.985Z,90.86
2019-05-14T20:36:38.949Z,90.80
2019-05-14T20:38:48.134Z,90.66
2019-05-14T20:40:58.013Z,90.50
2019-05-14T20:43:05.813Z,90.29
2019-05-14T20:45:14.344Z,90.75
2019-05-14T20:47:22.141Z,90.55
2019-05-14T20:49:30.179Z,90.62
2019-05-14T20:51:38.843Z,89.96
2019-05-14T20:53:48.750Z,90.41
2019-05-14T20:55:58.825Z,90.68
2019-05-14T20:58:07.996Z,91.33
2019-05-14T21:00:18.114Z,91.22
2019-05-14T21:02:25.785Z,91.39
2019-05-14T21:04:33.790Z,91.90
2019-05-14T21:06:41.678Z,92.42
2019-05-14T21:08:49.672Z,91.66
2019-05-14T21:10:58.764Z,93.05
2019-05-14T21:13:08.711Z,92.36
2019-05-14T21:15:18.266Z,91.78
2019-05-14T21:17:28.198Z,92.40
2019-05-14T21:19:37.995Z,91.96
2019-05-14T21:21:46.163Z,92.31
2019-05-14T21:23:54.167Z,91.42
2019-05-14T21:26:03.043Z,91.38
2019-05-14T21:28:10.895Z,92.43
2019-05-14T21:30:21.757Z,91.76
2019-05-14T21:32:28.467Z,92.34
2019-05-14T21:34:38.276Z,93.19
2019-05-14T21:36:48.978Z,92.83
2019-05-14T21:38:58.636Z,92.43
2019-05-14T21:41:06.551Z,91.39
2019-05-14T21:43:14.468Z,91.81
2019-05-14T21:45:22.352Z,91.67
2019-05-14T21:47:30.701Z,91.85
2019-05-14T21:49:39.758Z,92.16
2019-05-14T21:51:48.314Z,92.28
2019-05-14T21:53:58.784Z,92.66
2019-05-14T21:56:06.867Z,92.30
2019-05-14T21:58:14.810Z,91.66
2019-05-14T22:00:31.857Z,91.69
2019-05-14T22:02:41.345Z,91.15
2019-05-14T22:04:49.312Z,90.99
2019-05-14T22:06:58.351Z,91.26
2019-05-14T22:09:08.753Z,91.26
2019-05-14T22:11:18.829Z,91.49
2019-05-14T22:13:28.351Z,91.39
2019-05-14T22:15:38.966Z,92.05
2019-05-14T22:17:48.975Z,92.07
2019-05-14T22:19:58.291Z,91.65
2019-05-14T22:22:08.012Z,91.13
2019-05-14T22:24:16.141Z,92.04
2019-05-14T22:26:24.269Z,91.76
2019-05-14T22:28:32.254Z,92.78
2019-05-14T22:30:40.135Z,92.54
2019-05-14T22:32:48.219Z,92.05
2019-05-14T22:34:58.444Z,93.14
2019-05-14T22:37:05.759Z,92.48
2019-05-14T22:39:13.669Z,91.80
2019-05-14T22:41:21.554Z,92.41
2019-05-14T22:43:29.435Z,92.56
2019-05-14T22:45:37.521Z,92.72
2019-05-14T22:47:45.425Z,92.92
2019-05-14T22:49:53.284Z,93.50
2019-05-14T22:52:01.305Z,93.34
2019-05-14T22:54:09.404Z,92.36
2019-05-14T22:56:17.288Z,92.70
2019-05-14T22:58:25.975Z,92.71
2019-05-14T23:00:34.680Z,92.37
2019-05-14T23:02:42.691Z,92.04
2019-05-14T23:04:50.682Z,92.46
2019-05-14T23:06:58.774Z,93.29
2019-05-14T23:09:09.025Z,92.43
2019-05-14T23:11:19.489Z,92.68
2019-05-14T23:13:28.081Z,92.02
2019-05-14T23:15:38.532Z,92.05
2019-05-14T23:17:48.019Z,91.96
2019-05-14T23:19:58.090Z,92.42
2019-05-14T23:22:05.830Z,92.01
2019-05-14T23:24:13.760Z,91.77
2019-05-14T23:26:21.802Z,91.95
2019-05-14T23:28:41.914Z,92.41
2019-05-14T23:30:39.540Z,92.18
2019-05-14T23:32:49.043Z,92.23
2019-05-14T23:34:58.467Z,92.30
2019-05-14T23:37:08.188Z,92.29
2019-05-14T23:39:16.208Z,92.41
2019-05-14T23:41:24.149Z,92.68
2019-05-14T23:43:32.073Z,92.92
2019-05-14T23:45:40.241Z,92.63
2019-05-14T23:47:49.279Z,92.17
2019-05-14T23:49:58.400Z,92.34
2019-05-14T23:52:06.447Z,92.42
2019-05-14T23:54:14.328Z,92.27
2019-05-14T23:56:22.315Z,92.27
2019-05-14T23:58:30.239Z,92.21
